Time;durP1;ratioP1;P1;durP2;ratioP2;P2;SDS_P1;SDS_P2;PMS_P1;PMS_P2;Temp;Humidity;BMP_temperature;BMP_pressure;BME280_temperature;BME280_humidity;BME280_pressure;Samples;Min_cycle;Max_cycle;Signal;HPM_P1;HPM_P2
2023/10/07 00:01:07;;;;;;;8.00;2.80;;;;;;;18.51;76.91;100619.63;5081112;28;20225;-80
2023/10/07 00:03:00;;;;;;;3.70;3.30;;;;;;;18.54;77.23;100618.91;5080805;28;20202;-80
2023/10/07 00:05:35;;;;;;;3.23;1.73;;;;;;;18.63;77.52;100627.00;5079697;28;20183;-80
2023/10/07 00:08:04;;;;;;;6.60;3.93;;;;;;;18.36;77.98;100621.25;5081429;28;20177;-80
2023/10/07 00:10:31;;;;;;;3.17;2.57;;;;;;;18.31;78.37;100620.75;5081068;28;20178;-80
2023/10/07 00:13:01;;;;;;;7.97;3.13;;;;;;;18.34;78.61;100620.81;5079919;28;20175;-81
2023/10/07 00:15:30;;;;;;;3.93;3.50;;;;;;;18.19;78.23;100601.47;5080895;28;20177;-80
2023/10/07 00:20:39;;;;;;;2.53;2.03;;;;;;;18.24;78.54;100621.38;5065407;28;20187;-80
2023/10/07 00:23:06;;;;;;;2.87;2.67;;;;;;;18.29;78.59;100618.34;5077896;28;20257;-80
2023/10/07 00:25:32;;;;;;;5.80;3.73;;;;;;;18.28;78.19;100619.50;5064496;28;20183;-80
2023/10/07 00:27:58;;;;;;;4.50;4.07;;;;;;;18.22;78.38;100622.88;5081740;28;20523;-80
2023/10/07 00:30:27;;;;;;;3.20;2.67;;;;;;;18.45;77.99;100621.06;5079118;28;20608;-80
2023/10/07 00:32:55;;;;;;;3.27;2.60;;;;;;;18.50;77.73;100625.50;5079453;28;20210;-80
2023/10/07 00:35:27;;;;;;;4.67;3.60;;;;;;;18.43;77.55;100626.16;5075613;28;20551;-79
2023/10/07 00:37:52;;;;;;;2.23;2.10;;;;;;;18.47;77.95;100626.25;5070739;28;20186;-79
2023/10/07 00:40:31;;;;;;;2.13;1.83;;;;;;;18.52;77.50;100631.50;5072515;28;20572;-80
2023/10/07 00:42:57;;;;;;;8.50;3.33;;;;;;;18.26;77.94;100621.03;5075358;28;20205;-80
2023/10/07 00:45:24;;;;;;;2.53;1.63;;;;;;;18.48;77.70;100636.16;5076605;28;20178;-80
2023/10/07 00:47:52;;;;;;;4.47;2.40;;;;;;;18.34;78.03;100634.66;5074895;28;20714;-80
2023/10/07 00:50:20;;;;;;;6.53;2.97;;;;;;;18.36;77.98;100629.56;5076053;28;20174;-81
2023/10/07 00:55:25;;;;;;;2.40;1.97;;;;;;;18.58;77.71;100643.91;5078766;28;20189;-80
2023/10/07 00:58:03;;;;;;;3.10;2.60;;;;;;;18.58;77.02;100632.84;5060892;28;20179;-80
2023/10/07 01:00:50;;;;;;;8.07;3.40;;;;;;;18.34;78.00;100628.31;5078399;28;20174;-81
2023/10/07 01:06:09;;;;;;;3.67;3.33;;;;;;;18.37;77.86;100631.19;5079236;28;20183;-80
2023/10/07 01:08:49;;;;;;;4.83;3.83;;;;;;;18.30;78.23;100631.00;5079427;28;20201;-81
2023/10/07 01:13:56;;;;;;;12.10;2.87;;;;;;;18.24;78.54;100635.22;5079720;28;20220;-81
2023/10/07 01:16:30;;;;;;;4.43;3.33;;;;;;;18.35;78.27;100638.22;5080408;28;20217;-80
2023/10/07 01:18:59;;;;;;;6.67;5.10;;;;;;;18.08;78.37;100609.50;5081999;28;20202;-80
2023/10/07 01:21:31;;;;;;;6.30;3.20;;;;;;;18.19;78.51;100618.06;5081442;28;20182;-80
2023/10/07 01:23:58;;;;;;;5.90;3.87;;;;;;;18.12;78.76;100636.09;5081563;28;20209;-81
2023/10/07 01:26:29;;;;;;;3.70;2.43;;;;;;;18.24;78.72;100620.59;5081257;28;20186;-80
2023/10/07 01:29:07;;;;;;;2.57;2.37;;;;;;;18.24;78.63;100626.91;5081139;28;20179;-80
2023/10/07 01:31:32;;;;;;;5.00;3.33;;;;;;;18.21;78.91;100611.00;5080855;28;20281;-80
2023/10/07 01:34:01;;;;;;;7.13;1.73;;;;;;;18.46;78.77;100621.88;5080777;28;20230;-81
2023/10/07 01:36:26;;;;;;;8.97;4.67;;;;;;;18.28;78.51;100605.66;5079921;28;20648;-81
2023/10/07 01:38:53;;;;;;;5.33;3.20;;;;;;;18.32;78.60;100617.63;5079798;28;20232;-81
2023/10/07 01:41:27;;;;;;;11.50;3.93;;;;;;;18.54;78.21;100623.66;5078903;28;20186;-82
2023/10/07 01:44:05;;;;;;;3.73;2.73;;;;;;;18.56;77.49;100616.59;5080136;28;20213;-81
2023/10/07 01:46:31;;;;;;;6.73;3.60;;;;;;;18.37;78.23;100609.06;5079301;28;20566;-80
2023/10/07 01:49:01;;;;;;;3.17;1.93;;;;;;;18.53;78.11;100622.84;5078851;28;20178;-80
2023/10/07 01:51:28;;;;;;;1.37;1.27;;;;;;;18.60;78.11;100622.19;5079877;28;20282;-80
2023/10/07 01:53:56;;;;;;;2.30;1.50;;;;;;;18.50;77.90;100615.25;5078461;28;20206;-81
2023/10/07 01:56:23;;;;;;;5.33;3.17;;;;;;;18.48;78.02;100608.47;5079554;28;20189;-80
2023/10/07 01:58:48;;;;;;;15.93;4.13;;;;;;;18.27;78.74;100598.53;5077621;28;20207;-80
2023/10/07 02:01:16;;;;;;;7.70;2.27;;;;;;;18.36;78.70;100612.16;5077343;28;20245;-80
2023/10/07 02:03:45;;;;;;;3.00;2.67;;;;;;;18.39;78.84;100611.47;5079664;28;20570;-81
2023/10/07 02:06:11;;;;;;;3.17;2.03;;;;;;;18.50;78.56;100614.44;5079381;28;20174;-80
2023/10/07 02:08:37;;;;;;;14.03;3.77;;;;;;;18.50;77.98;100606.16;5079427;28;20278;-79
2023/10/07 02:11:05;;;;;;;4.37;3.00;;;;;;;18.64;77.61;100609.25;5079662;28;20174;-80
2023/10/07 02:13:31;;;;;;;9.07;2.80;;;;;;;18.54;77.14;100601.50;5077124;28;20202;-81
2023/10/07 02:15:56;;;;;;;1.10;1.10;;;;;;;18.76;76.91;100620.22;5078900;28;20193;-80
2023/10/07 02:18:22;;;;;;;1.40;1.30;;;;;;;18.82;76.72;100604.94;5078675;28;20234;-80
2023/10/07 02:23:37;;;;;;;4.43;3.70;;;;;;;18.61;76.98;100621.03;5078795;28;20294;-80
2023/10/07 02:26:15;;;;;;;11.17;2.60;;;;;;;18.69;77.04;100623.63;5079385;28;20175;-80
2023/10/07 02:28:42;;;;;;;4.70;2.20;;;;;;;18.68;77.22;100622.03;5079357;28;20174;-80
2023/10/07 02:31:08;;;;;;;4.17;2.80;;;;;;;18.67;77.03;100623.19;5077375;28;20241;-81
2023/10/07 02:33:41;;;;;;;4.60;2.30;;;;;;;18.80;76.99;100626.63;5079361;28;20236;-80
2023/10/07 02:36:10;;;;;;;2.33;2.13;;;;;;;18.79;76.37;100624.22;5076580;28;20266;-81
2023/10/07 02:38:41;;;;;;;3.60;2.20;;;;;;;18.85;76.36;100615.28;5078719;28;20217;-81
2023/10/07 02:41:16;;;;;;;0.93;0.93;;;;;;;18.83;76.86;100628.69;5078485;28;20178;-82
2023/10/07 02:43:43;;;;;;;12.30;2.80;;;;;;;18.76;76.97;100619.41;5078240;28;20206;-80
2023/10/07 02:46:22;;;;;;;2.73;2.37;;;;;;;18.85;76.46;100628.31;5078380;28;20185;-80
2023/10/07 02:48:47;;;;;;;5.97;2.40;;;;;;;18.78;76.67;100612.34;5078934;28;20652;-80
2023/10/07 02:51:13;;;;;;;1.17;1.10;;;;;;;18.74;76.77;100614.25;5077823;28;20185;-80
2023/10/07 02:53:38;;;;;;;2.40;1.23;;;;;;;18.54;77.43;100607.84;5078354;28;20210;-80
2023/10/07 02:56:16;;;;;;;6.23;3.37;;;;;;;18.39;77.86;100611.47;5077955;28;20174;-80
2023/10/07 02:58:51;;;;;;;8.20;3.00;;;;;;;18.30;78.54;100597.00;5076470;28;20217;-80
2023/10/07 03:01:25;;;;;;;8.60;3.00;;;;;;;18.39;78.34;100597.63;5078176;28;20693;-79
2023/10/07 03:03:51;;;;;;;2.57;2.10;;;;;;;18.40;78.00;100585.41;5076027;28;20206;-79
2023/10/07 03:06:19;;;;;;;4.27;2.10;;;;;;;18.37;78.40;100597.16;5078823;28;20178;-80
2023/10/07 03:11:12;;;;;;;2.63;1.77;;;;;;;18.37;78.57;100586.09;5076742;28;20182;-79
2023/10/07 03:13:45;;;;;;;3.73;2.57;;;;;;;18.44;78.36;100575.19;5077128;28;20271;-80
2023/10/07 03:18:55;;;;;;;5.07;2.83;;;;;;;18.36;78.26;100582.53;5077884;28;20599;-80
2023/10/07 03:21:21;;;;;;;5.57;3.47;;;;;;;18.12;78.91;100574.47;5076107;28;20255;-80
2023/10/07 03:23:47;;;;;;;2.23;1.97;;;;;;;18.40;78.27;100594.50;5077264;28;20359;-80
2023/10/07 03:26:21;;;;;;;5.87;3.03;;;;;;;18.49;77.94;100599.81;5077529;28;20547;-80
2023/10/07 03:28:53;;;;;;;1.53;1.30;;;;;;;18.57;77.21;100596.06;5075732;28;20261;-79
2023/10/07 03:31:35;;;;;;;2.57;2.37;;;;;;;18.95;76.55;100616.66;5077027;28;20604;-80
2023/10/07 03:34:03;;;;;;;4.90;1.97;;;;;;;18.92;75.87;100584.16;5076787;28;20217;-80
2023/10/07 03:36:40;;;;;;;0.93;0.93;;;;;;;19.12;75.16;100599.63;5074977;28;20648;-79
2023/10/07 03:39:17;;;;;;;2.33;2.13;;;;;;;18.74;75.81;100578.25;5077356;28;20198;-79
2023/10/07 03:41:47;;;;;;;1.93;1.80;;;;;;;18.85;75.55;100592.31;5075718;28;20190;-79
2023/10/07 03:44:27;;;;;;;9.43;2.50;;;;;;;18.81;76.07;100600.56;5077389;28;20217;-80
2023/10/07 03:46:54;;;;;;;2.03;1.87;;;;;;;18.70;76.05;100592.03;5075166;28;20193;-79
2023/10/07 03:49:21;;;;;;;3.00;2.80;;;;;;;18.94;75.69;100590.13;5076711;28;20718;-79
2023/10/07 03:54:31;;;;;;;5.20;2.77;;;;;;;18.12;77.82;100568.94;5077003;28;20226;-80
2023/10/07 03:57:00;;;;;;;3.90;3.10;;;;;;;18.17;78.72;100587.22;5073572;28;20182;-79
2023/10/07 03:59:27;;;;;;;9.30;3.30;;;;;;;18.07;79.19;100577.50;5074960;28;20282;-81
2023/10/07 04:01:53;;;;;;;8.47;3.40;;;;;;;18.00;80.41;100580.91;5079408;28;20644;-80
2023/10/07 04:04:22;;;;;;;10.00;5.60;;;;;;;17.75;82.97;100594.09;5077305;28;20207;-80
2023/10/07 04:06:48;;;;;;;3.67;3.13;;;;;;;17.84;85.50;100597.50;5076636;28;20185;-79
2023/10/07 04:09:13;;;;;;;5.10;4.63;;;;;;;17.39;88.03;100594.31;5075444;28;20175;-78
2023/10/07 04:11:48;;;;;;;6.50;6.00;;;;;;;17.25;90.02;100590.00;5073977;28;20269;-79
2023/10/07 04:14:22;;;;;;;10.67;6.20;;;;;;;17.29;91.01;100605.84;5074502;28;20205;-79
2023/10/07 04:16:50;;;;;;;3.97;3.67;;;;;;;17.47;91.27;100605.16;5074867;28;20525;-79
2023/10/07 04:21:41;;;;;;;7.27;5.03;;;;;;;17.24;91.95;100588.41;5075281;28;20181;-78
2023/10/07 04:24:10;;;;;;;3.80;3.57;;;;;;;17.12;93.16;100599.50;5077788;28;20645;-79
2023/10/07 04:26:39;;;;;;;11.13;4.80;;;;;;;16.86;94.33;100586.13;5078213;28;20179;-79
2023/10/07 04:29:16;;;;;;;5.47;5.07;;;;;;;17.04;94.83;100596.88;5077690;28;20224;-79
2023/10/07 04:31:51;;;;;;;7.13;4.47;;;;;;;17.00;94.64;100593.22;5077084;28;20217;-79
2023/10/07 04:34:17;;;;;;;4.03;3.73;;;;;;;16.78;95.25;100591.78;5077395;28;20675;-79
2023/10/07 04:39:31;;;;;;;2.00;1.90;;;;;;;16.92;94.89;100594.94;5076920;28;20271;-79
2023/10/07 04:42:03;;;;;;;2.37;2.27;;;;;;;17.07;94.62;100607.19;5075652;28;20226;-79
2023/10/07 04:50:14;;;;;;;8.53;7.80;;;;;;;16.66;95.60;100576.06;5077567;28;20274;-79
2023/10/07 04:52:40;;;;;;;10.30;9.27;;;;;;;16.56;96.36;100588.38;5077470;28;20256;-79
2023/10/07 04:55:13;;;;;;;6.97;6.13;;;;;;;16.73;97.10;100605.81;5079241;28;20692;-79
2023/10/07 04:57:44;;;;;;;10.90;9.53;;;;;;;16.71;96.71;100606.19;5076811;28;20274;-79
2023/10/07 05:02:59;;;;;;;8.33;6.87;;;;;;;16.91;96.26;100626.47;5076538;28;20243;-79
2023/10/07 05:05:34;;;;;;;7.27;6.57;;;;;;;16.98;95.68;100621.16;5076494;28;20196;-79
2023/10/07 05:08:19;;;;;;;12.50;10.37;;;;;;;16.68;96.14;100600.56;5076450;28;20189;-79
2023/10/07 05:10:52;;;;;;;10.23;9.17;;;;;;;16.71;96.59;100619.16;5075470;28;20182;-79
2023/10/07 05:13:18;;;;;;;12.57;10.93;;;;;;;16.56;97.40;100602.16;5076465;28;20209;-79
2023/10/07 05:15:43;;;;;;;10.93;7.10;;;;;;;16.74;97.47;100618.47;5076614;28;20187;-79
2023/10/07 05:18:16;;;;;;;5.53;5.10;;;;;;;16.87;96.98;100615.31;5076430;28;20265;-79
2023/10/07 05:20:43;;;;;;;7.77;7.07;;;;;;;16.87;97.09;100615.31;5076311;28;20190;-79
2023/10/07 05:23:13;;;;;;;9.47;8.50;;;;;;;16.78;97.26;100622.13;5076133;28;20210;-79
2023/10/07 05:25:44;;;;;;;4.43;3.73;;;;;;;16.93;96.84;100621.41;5075180;28;20182;-80
2023/10/07 05:28:16;;;;;;;7.57;6.87;;;;;;;16.91;96.73;100621.75;5076399;28;20178;-79
2023/10/07 05:30:50;;;;;;;7.80;7.13;;;;;;;16.94;96.51;100628.56;5075725;28;20544;-79
2023/10/07 05:33:25;;;;;;;9.27;8.40;;;;;;;16.90;97.06;100617.38;5074962;28;20202;-79
2023/10/07 05:36:00;;;;;;;12.33;11.13;;;;;;;16.85;97.39;100634.19;5076389;28;20186;-79
2023/10/07 05:38:25;;;;;;;7.90;7.20;;;;;;;16.91;97.55;100631.97;5075086;28;20272;-79
2023/10/07 05:41:00;;;;;;;9.30;8.40;;;;;;;16.98;98.18;100634.16;5076294;28;20316;-79
2023/10/07 05:43:25;;;;;;;16.00;10.50;;;;;;;17.00;97.53;100624.38;5074420;28;20217;-79
2023/10/07 05:45:52;;;;;;;12.47;10.67;;;;;;;16.97;97.22;100638.88;5074922;28;20186;-79
2023/10/07 05:48:17;;;;;;;7.93;5.87;;;;;;;17.01;97.48;100634.25;5076016;28;20183;-79
2023/10/07 05:50:42;;;;;;;11.07;10.00;;;;;;;17.09;96.82;100630.56;5075718;28;20178;-79
2023/10/07 05:53:07;;;;;;;9.27;8.37;;;;;;;17.20;97.21;100634.41;5076289;28;20681;-79
2023/10/07 05:55:33;;;;;;;13.50;12.10;;;;;;;17.02;96.77;100624.03;5075182;28;20182;-79
2023/10/07 05:58:01;;;;;;;10.63;9.50;;;;;;;17.33;96.42;100653.69;5075660;28;20183;-79
2023/10/07 06:00:31;;;;;;;10.30;9.07;;;;;;;17.17;96.37;100632.34;5073984;28;20267;-80
2023/10/07 06:02:57;;;;;;;9.87;8.53;;;;;;;17.10;97.19;100639.66;5074203;28;20174;-79
2023/10/07 06:05:27;;;;;;;12.23;5.57;;;;;;;17.28;97.41;100651.19;5074308;28;20212;-80
2023/10/07 06:07:57;;;;;;;9.93;8.00;;;;;;;17.11;97.57;100644.81;5074608;28;20206;-80
2023/10/07 06:10:24;;;;;;;17.17;9.70;;;;;;;17.20;97.02;100642.69;5075130;28;20269;-80
2023/10/07 06:12:49;;;;;;;7.00;6.40;;;;;;;17.27;97.20;100652.34;5072290;28;20185;-81
2023/10/07 06:15:16;;;;;;;11.17;9.97;;;;;;;17.24;96.72;100653.88;5072322;28;20198;-81
2023/10/07 06:17:42;;;;;;;16.87;11.53;;;;;;;17.21;97.30;100652.63;5072601;28;20178;-81
2023/10/07 06:20:18;;;;;;;11.47;8.50;;;;;;;17.15;97.39;100653.19;5073441;28;20679;-82
2023/10/07 06:22:48;;;;;;;12.23;11.13;;;;;;;16.97;97.91;100655.44;5065207;28;20174;-81
2023/10/07 06:25:15;;;;;;;12.40;11.33;;;;;;;17.18;98.44;100660.78;5074138;28;20202;-81
2023/10/07 06:27:43;;;;;;;13.83;12.50;;;;;;;17.05;98.82;100657.25;5073830;28;20209;-81
2023/10/07 06:30:11;;;;;;;21.47;10.40;;;;;;;17.14;98.93;100660.69;5074020;28;20711;-84
2023/10/07 06:32:46;;;;;;;10.77;9.77;;;;;;;17.23;97.82;100664.09;5073467;28;20189;-81
2023/10/07 06:35:14;;;;;;;12.77;11.80;;;;;;;17.20;98.24;100666.75;5073761;28;20227;-81
2023/10/07 06:37:42;;;;;;;9.47;8.57;;;;;;;17.30;97.73;100671.78;5073267;28;20638;-81
2023/10/07 06:40:43;;;;;;;17.47;9.97;;;;;;;17.22;98.18;100670.78;5071912;28;20233;-82
2023/10/07 06:43:01;;;;;;;16.07;13.73;;;;;;;17.04;98.44;100663.91;5071237;28;20271;-80
2023/10/07 06:45:35;;;;;;;15.27;6.50;;;;;;;17.32;98.21;100676.94;5076925;28;20243;-82
2023/10/07 06:48:05;;;;;;;17.13;14.80;;;;;;;17.35;97.53;100681.75;5078316;28;20185;-82
2023/10/07 06:50:31;;;;;;;12.43;11.20;;;;;;;17.41;97.38;100677.63;5076329;28;20178;-82
2023/10/07 06:52:56;;;;;;;17.63;15.07;;;;;;;17.29;97.36;100672.94;5076888;28;20237;-82
2023/10/07 06:55:22;;;;;;;25.77;17.33;;;;;;;17.29;97.67;100658.31;5076302;28;20602;-81
2023/10/07 06:57:47;;;;;;;6.53;6.03;;;;;;;17.44;97.66;100683.22;5076581;28;20193;-82
2023/10/07 07:00:23;;;;;;;13.03;11.03;;;;;;;17.52;97.56;100690.56;5076169;28;20301;-81
2023/10/07 07:02:57;;;;;;;16.50;12.73;;;;;;;17.35;97.03;100685.31;5076766;28;20178;-82
2023/10/07 07:05:25;;;;;;;20.03;18.10;;;;;;;17.38;97.58;100681.09;5077393;28;20185;-82
2023/10/07 07:07:53;;;;;;;16.57;13.03;;;;;;;17.42;97.81;100680.03;5076337;28;20209;-81
2023/10/07 07:10:27;;;;;;;8.33;7.63;;;;;;;17.70;97.13;100696.63;5075189;28;20180;-82
2023/10/07 07:12:58;;;;;;;12.07;6.03;;;;;;;17.78;96.20;100692.88;5075214;28;20840;-81
2023/10/07 07:15:28;;;;;;;13.27;10.07;;;;;;;17.75;96.07;100677.00;5075755;28;20186;-82
2023/10/07 07:18:03;;;;;;;8.10;7.40;;;;;;;17.74;96.23;100685.66;5072275;28;20312;-81
2023/10/07 07:23:15;;;;;;;9.83;9.00;;;;;;;17.72;97.56;100687.97;5072223;28;20264;-81
2023/10/07 07:25:43;;;;;;;7.47;6.80;;;;;;;17.80;96.93;100693.34;5058872;28;20269;-81
2023/10/07 07:28:09;;;;;;;8.43;7.63;;;;;;;17.54;97.44;100677.22;5057958;28;20187;-81
2023/10/07 07:30:35;;;;;;;19.37;17.70;;;;;;;17.45;97.94;100678.50;5058661;28;20257;-81
2023/10/07 07:33:08;;;;;;;18.47;16.53;;;;;;;17.48;98.46;100684.13;5059049;28;20210;-81
2023/10/07 07:35:39;;;;;;;15.80;10.47;;;;;;;17.53;98.90;100694.13;5069411;28;20183;-82
2023/10/07 07:38:11;;;;;;;15.80;11.90;;;;;;;17.51;98.92;100707.50;5059321;28;20722;-82
2023/10/07 07:40:40;;;;;;;10.07;9.13;;;;;;;17.42;99.51;100699.34;5062911;28;20207;-81
2023/10/07 07:43:07;;;;;;;17.23;11.90;;;;;;;17.41;99.85;100700.50;5059631;28;20612;-81
2023/10/07 07:45:35;;;;;;;24.00;14.27;;;;;;;17.39;99.89;100696.50;5062853;28;20668;-80
2023/10/07 07:48:04;;;;;;;12.10;10.93;;;;;;;17.61;99.22;100703.41;5067539;28;20240;-81
2023/10/07 07:50:35;;;;;;;17.00;15.23;;;;;;;17.54;98.97;100693.78;5063619;28;20187;-83
2023/10/07 07:53:09;;;;;;;14.87;13.47;;;;;;;17.62;99.17;100696.72;5055566;28;20192;-81
2023/10/07 07:55:37;;;;;;;4.80;4.40;;;;;;;17.78;99.17;100708.66;5063767;28;20235;-81
2023/10/07 07:58:03;;;;;;;12.93;10.87;;;;;;;17.58;99.45;100685.59;5060870;28;20189;-81
2023/10/07 08:00:31;;;;;;;16.37;14.20;;;;;;;17.49;99.81;100680.22;5060443;28;20215;-81
2023/10/07 08:02:58;;;;;;;17.80;12.07;;;;;;;17.72;99.72;100702.59;5062725;28;20210;-81
2023/10/07 08:05:28;;;;;;;32.27;14.80;;;;;;;17.62;99.43;100685.69;5065806;28;20543;-81
2023/10/07 08:07:54;;;;;;;17.40;10.90;;;;;;;17.77;98.91;100696.81;5075636;28;20298;-82
2023/10/07 08:10:20;;;;;;;17.47;13.10;;;;;;;17.82;98.53;100699.31;5061445;28;20178;-81
2023/10/07 08:12:47;;;;;;;7.93;7.27;;;;;;;17.97;98.66;100710.75;5061147;28;20179;-82
2023/10/07 08:17:39;;;;;;;7.70;6.93;;;;;;;17.91;98.97;100676.22;5066737;28;20193;-81
2023/10/07 08:20:12;;;;;;;13.33;12.03;;;;;;;18.11;98.18;100680.72;5062073;28;20213;-82
2023/10/07 08:22:45;;;;;;;20.03;11.27;;;;;;;17.93;98.35;100671.13;5058535;28;20178;-81
2023/10/07 08:25:15;;;;;;;10.77;6.27;;;;;;;18.10;98.11;100692.94;5068122;28;20217;-83
2023/10/07 08:27:43;;;;;;;10.83;9.77;;;;;;;17.99;97.79;100683.56;5072068;28;20185;-85
2023/10/07 08:30:10;;;;;;;15.57;11.80;;;;;;;18.10;98.37;100704.81;5061581;28;20185;-81
2023/10/07 08:32:37;;;;;;;12.73;5.53;;;;;;;18.25;97.39;100705.16;5066160;28;20205;-81
2023/10/07 08:35:14;;;;;;;12.03;9.60;;;;;;;18.42;96.32;100715.88;5060669;28;20206;-82
2023/10/07 08:37:45;;;;;;;7.97;6.90;;;;;;;18.41;96.54;100714.25;5064151;28;20182;-81
2023/10/07 08:40:25;;;;;;;17.33;14.70;;;;;;;18.38;95.85;100717.75;5057303;28;20295;-82
2023/10/07 08:43:00;;;;;;;22.87;17.07;;;;;;;18.38;95.98;100699.19;5066024;28;20245;-82
2023/10/07 08:45:30;;;;;;;12.47;11.27;;;;;;;18.48;95.56;100699.78;5066700;28;20182;-81
2023/10/07 08:48:14;;;;;;;21.13;16.60;;;;;;;18.39;95.54;100688.91;5063424;28;20193;-81
2023/10/07 08:50:52;;;;;;;22.33;16.93;;;;;;;18.28;95.83;100676.78;5062463;28;20306;-81
2023/10/07 08:53:18;;;;;;;30.70;15.70;;;;;;;18.22;96.67;100680.97;5061379;28;20257;-82
2023/10/07 08:55:43;;;;;;;22.00;10.50;;;;;;;18.35;96.38;100694.34;5075229;28;20178;-82
2023/10/07 08:58:11;;;;;;;5.80;4.53;;;;;;;18.28;95.63;100671.25;5071533;28;20694;-81
2023/10/07 09:00:45;;;;;;;12.03;9.83;;;;;;;18.47;95.19;100678.81;5072895;28;20218;-81
2023/10/07 09:03:14;;;;;;;22.20;14.33;;;;;;;18.34;95.90;100670.59;5070397;28;20540;-81
2023/10/07 09:05:40;;;;;;;13.87;7.33;;;;;;;18.66;95.91;100687.19;5071753;28;20175;-82
2023/10/07 09:08:11;;;;;;;11.40;9.30;;;;;;;18.65;95.43;100668.97;5068343;28;20183;-81
2023/10/07 09:10:40;;;;;;;15.63;10.03;;;;;;;18.50;95.61;100653.19;5075721;28;20652;-80
2023/10/07 09:13:12;;;;;;;14.60;11.93;;;;;;;18.53;95.18;100656.06;5070842;28;20190;-82
2023/10/07 09:15:42;;;;;;;19.40;13.73;;;;;;;18.47;95.83;100660.25;5067464;28;20650;-80
2023/10/07 09:18:10;;;;;;;11.60;6.67;;;;;;;18.75;95.52;100670.41;5076404;28;20186;-81
2023/10/07 09:20:45;;;;;;;14.20;12.80;;;;;;;18.70;94.84;100657.66;5076274;28;20206;-80
2023/10/07 09:23:19;;;;;;;9.90;5.83;;;;;;;18.95;94.48;100670.09;5076865;28;20557;-82
2023/10/07 09:25:51;;;;;;;12.10;10.90;;;;;;;18.81;94.35;100658.72;5066689;28;20190;-80
2023/10/07 09:28:27;;;;;;;19.03;11.90;;;;;;;18.79;94.39;100657.44;5070105;28;20554;-83
2023/10/07 09:30:54;;;;;;;14.00;11.93;;;;;;;18.76;94.34;100658.16;5065528;28;20621;-83
2023/10/07 09:33:21;;;;;;;24.93;11.93;;;;;;;18.77;94.82;100659.78;5070155;28;20456;-82
2023/10/07 09:36:00;;;;;;;17.23;9.83;;;;;;;18.94;94.20;100676.75;5080170;28;20181;-83
2023/10/07 09:38:33;;;;;;;12.73;11.27;;;;;;;19.04;93.71;100664.31;5077978;28;20210;-81
2023/10/07 09:41:23;;;;;;;14.07;10.70;;;;;;;18.96;93.16;100657.84;5079798;28;20240;-81
2023/10/07 09:43:57;;;;;;;12.57;11.47;;;;;;;19.16;93.13;100657.84;5077887;28;20267;-83
2023/10/07 09:46:27;;;;;;;10.97;9.70;;;;;;;19.08;92.81;100643.03;5074681;28;20182;-82
2023/10/07 09:48:53;;;;;;;15.53;11.27;;;;;;;19.06;92.78;100637.06;5074580;28;20276;-81
2023/10/07 09:51:28;;;;;;;9.37;8.17;;;;;;;19.22;92.75;100648.88;5074052;28;20178;-81
2023/10/07 09:54:22;;;;;;;22.90;11.87;;;;;;;19.31;91.92;100646.69;5074451;28;20284;-81
2023/10/07 09:57:06;;;;;;;21.90;13.43;;;;;;;19.36;91.76;100651.13;5078303;28;20550;-81
2023/10/07 10:01:03;;;;;;;23.20;11.97;;;;;;;19.53;91.22;100653.47;5078560;28;20210;-81
2023/10/07 10:03:05;;;;;;;16.37;13.63;;;;;;;19.42;91.18;100646.09;5070062;28;20195;-81
2023/10/07 10:05:49;;;;;;;13.37;11.87;;;;;;;19.36;91.79;100636.47;5082532;28;20178;-82
2023/10/07 10:08:35;;;;;;;13.33;8.43;;;;;;;19.68;90.97;100664.84;5069760;28;20325;-81
2023/10/07 10:11:08;;;;;;;11.70;7.63;;;;;;;19.61;90.30;100662.75;5071405;28;20197;-80
2023/10/07 10:16:14;;;;;;;11.40;8.47;;;;;;;19.63;90.24;100665.13;5077347;28;20271;-80
2023/10/07 10:19:11;;;;;;;9.10;8.33;;;;;;;19.56;90.06;100654.72;5077401;28;20227;-80
2023/10/07 10:21:36;;;;;;;13.20;6.90;;;;;;;19.80;89.36;100676.56;5075265;28;20392;-80
2023/10/07 10:24:02;;;;;;;7.13;6.53;;;;;;;19.86;88.88;100671.53;5077947;28;20204;-80
2023/10/07 10:26:33;;;;;;;10.53;9.00;;;;;;;19.89;88.43;100662.47;5076077;28;20186;-79
2023/10/07 10:29:07;;;;;;;8.00;6.80;;;;;;;19.94;88.37;100672.44;5077749;28;20189;-81
2023/10/07 10:31:34;;;;;;;8.63;7.87;;;;;;;19.85;88.63;100676.28;5077136;28;20202;-81
2023/10/07 10:34:08;;;;;;;20.73;9.90;;;;;;;19.97;88.45;100664.19;5076175;28;20202;-79
2023/10/07 10:36:40;;;;;;;8.40;7.23;;;;;;;20.12;87.83;100670.78;5077141;28;20530;-81
2023/10/07 10:39:18;;;;;;;14.87;9.77;;;;;;;20.05;87.34;100651.25;5079851;28;20233;-81
2023/10/07 10:41:44;;;;;;;7.43;5.57;;;;;;;20.08;88.10;100672.69;5076208;28;20659;-81
2023/10/07 10:44:10;;;;;;;8.00;7.40;;;;;;;20.00;87.81;100643.25;5075144;28;20277;-80
2023/10/07 10:46:46;;;;;;;8.97;8.17;;;;;;;20.02;87.80;100640.91;5076936;28;20664;-80
2023/10/07 10:49:15;;;;;;;9.77;7.37;;;;;;;20.29;87.33;100652.84;5076859;28;20213;-80
2023/10/07 10:51:46;;;;;;;6.53;4.90;;;;;;;20.37;86.64;100666.44;5072771;28;20187;-82
2023/10/07 10:54:29;;;;;;;11.57;9.40;;;;;;;20.48;86.30;100669.41;5072775;28;20202;-85
2023/10/07 10:56:57;;;;;;;7.00;5.53;;;;;;;20.83;85.01;100685.00;5077655;28;20256;-81
2023/10/07 10:59:43;;;;;;;2.43;2.33;;;;;;;21.32;83.72;100696.81;5069503;28;20205;-87
2023/10/07 11:02:17;;;;;;;8.00;7.40;;;;;;;21.24;83.04;100691.50;5074255;28;20182;-81
2023/10/07 11:04:44;;;;;;;6.23;5.37;;;;;;;21.17;82.09;100681.13;5073012;28;20230;-81
2023/10/07 11:07:09;;;;;;;13.23;11.77;;;;;;;20.63;82.07;100645.44;5059496;28;20183;-81
2023/10/07 11:09:38;;;;;;;6.93;6.20;;;;;;;20.76;82.39;100647.63;5066517;28;20179;-82
2023/10/07 11:12:16;;;;;;;13.27;7.70;;;;;;;20.57;82.57;100658.06;5057967;28;20182;-81
2023/10/07 11:14:43;;;;;;;8.90;8.17;;;;;;;20.50;83.49;100655.97;5068802;28;20668;-82
2023/10/07 11:17:09;;;;;;;6.50;5.90;;;;;;;20.46;83.31;100652.34;5064899;28;20192;-81
2023/10/07 11:20:02;;;;;;;6.27;5.77;;;;;;;20.66;83.94;100666.91;5068104;28;20213;-80
2023/10/07 11:22:30;;;;;;;11.20;10.13;;;;;;;20.48;83.69;100639.69;5066357;28;20198;-82
2023/10/07 11:24:55;;;;;;;9.70;7.67;;;;;;;20.65;83.47;100663.31;5062328;28;20269;-80
2023/10/07 11:27:26;;;;;;;7.43;6.93;;;;;;;20.59;83.18;100658.47;5063640;28;20752;-80
2023/10/07 11:30:03;;;;;;;6.17;5.30;;;;;;;20.77;83.85;100676.19;5073763;28;20174;-80
2023/10/07 11:32:30;;;;;;;7.93;7.23;;;;;;;20.60;83.89;100657.31;5076031;28;20676;-80
2023/10/07 11:34:57;;;;;;;7.47;6.87;;;;;;;20.72;84.06;100657.91;5077680;28;20300;-82
2023/10/07 11:37:23;;;;;;;5.87;5.37;;;;;;;20.82;83.43;100656.41;5076160;28;20400;-80
2023/10/07 11:39:48;;;;;;;8.03;7.37;;;;;;;20.77;83.36;100649.22;5078380;28;20210;-80
2023/10/07 11:42:19;;;;;;;6.63;6.00;;;;;;;20.91;83.19;100658.94;5068075;28;20191;-80
2023/10/07 11:44:49;;;;;;;7.57;6.87;;;;;;;21.07;82.63;100657.56;5059629;28;20687;-80
2023/10/07 11:47:16;;;;;;;9.10;6.70;;;;;;;21.14;82.42;100654.09;5060470;28;20183;-82
2023/10/07 11:49:43;;;;;;;2.43;2.30;;;;;;;21.33;82.00;100664.28;5076858;28;20178;-81
2023/10/07 11:52:09;;;;;;;3.13;2.73;;;;;;;21.35;81.46;100651.59;5068375;28;20179;-81
2023/10/07 11:54:37;;;;;;;10.30;7.83;;;;;;;21.26;81.31;100639.16;5062189;28;20718;-81
2023/10/07 11:57:05;;;;;;;0.53;0.53;;;;;;;21.61;80.92;100649.88;5058320;28;20211;-81
2023/10/07 11:59:41;;;;;;;9.63;8.83;;;;;;;21.09;80.91;100618.28;5058731;28;20203;-82
2023/10/07 12:02:14;;;;;;;8.43;7.73;;;;;;;21.23;80.75;100637.09;5059829;28;20560;-81
2023/10/07 12:04:42;;;;;;;4.50;4.20;;;;;;;21.48;80.20;100640.22;5069891;28;20554;-81
2023/10/07 12:07:08;;;;;;;10.60;3.33;;;;;;;21.55;79.69;100638.28;5064817;28;20229;-81
2023/10/07 12:09:37;;;;;;;7.97;5.47;;;;;;;21.66;79.61;100627.28;5068866;28;20183;-82
2023/10/07 12:12:03;;;;;;;22.50;5.47;;;;;;;21.72;79.42;100625.78;5057383;28;20182;-83
2023/10/07 12:14:29;;;;;;;7.83;7.23;;;;;;;21.56;79.49;100620.47;5063256;28;20218;-82
2023/10/07 12:16:55;;;;;;;4.97;4.67;;;;;;;21.76;79.29;100620.25;5078911;28;20227;-82